Terminal Aerodrome Forecast
Issued by NWS

Home | Current Version | Previous Version | Text Only | Print | Product List | Glossary On
Versions: 1 2 3 4 5 6 7 8 9 10 11 12
000
FTUS44 KTSA 261137
TAFXNA
TAF
KXNA 261137Z 2612/2712 VRB02KT P6SM BKN150
     FM261600 VRB06KT P6SM VCTS SCT050CB BKN120
     FM270100 VRB03KT P6SM BKN100 PROB30 2701/2704 4SM TSRA
      BKN050CB=

USA.gov is the U.S. government's official web portal to all federal, state and local government web resources and services.